sensor_id;sensor_type;location;lat;lon;timestamp;pressure;altitude;pressure_sealevel;temperature;humidity
50011;BME280;35899;50.352;19.390;2023-04-20T00:00:43;97896.84;;;7.03;100.00
50011;BME280;35899;50.352;19.390;2023-04-20T00:03:16;97895.45;;;7.04;100.00
50011;BME280;35899;50.352;19.390;2023-04-20T00:05:43;97894.23;;;7.04;100.00
50011;BME280;35899;50.352;19.390;2023-04-20T00:08:10;97893.16;;;7.05;100.00
50011;BME280;35899;50.352;19.390;2023-04-20T00:10:36;97893.11;;;7.05;100.00
50011;BME280;35899;50.352;19.390;2023-04-20T00:13:02;97893.45;;;7.06;100.00
50011;BME280;35899;50.352;19.390;2023-04-20T00:15:29;97891.54;;;7.06;100.00
50011;BME280;35899;50.352;19.390;2023-04-20T00:17:55;97890.34;;;7.06;100.00
50011;BME280;35899;50.352;19.390;2023-04-20T00:20:22;97889.48;;;7.06;100.00
50011;BME280;35899;50.352;19.390;2023-04-20T00:22:48;97889.98;;;7.07;100.00
50011;BME280;35899;50.352;19.390;2023-04-20T00:25:14;97884.39;;;7.08;100.00
50011;BME280;35899;50.352;19.390;2023-04-20T00:27:41;97878.58;;;7.07;100.00
50011;BME280;35899;50.352;19.390;2023-04-20T00:30:08;97879.38;;;7.05;100.00
50011;BME280;35899;50.352;19.390;2023-04-20T00:32:35;97879.98;;;7.03;100.00
50011;BME280;35899;50.352;19.390;2023-04-20T00:35:01;97879.20;;;7.02;100.00
50011;BME280;35899;50.352;19.390;2023-04-20T00:37:29;97876.41;;;7.00;100.00
50011;BME280;35899;50.352;19.390;2023-04-20T00:39:56;97881.77;;;6.99;100.00
50011;BME280;35899;50.352;19.390;2023-04-20T00:42:31;97880.67;;;6.97;100.00
50011;BME280;35899;50.352;19.390;2023-04-20T00:44:57;97883.58;;;6.95;100.00
50011;BME280;35899;50.352;19.390;2023-04-20T00:47:24;97883.60;;;6.94;100.00
50011;BME280;35899;50.352;19.390;2023-04-20T00:49:53;97885.59;;;6.96;100.00
50011;BME280;35899;50.352;19.390;2023-04-20T00:52:20;97890.11;;;6.98;100.00
50011;BME280;35899;50.352;19.390;2023-04-20T00:54:47;97889.64;;;7.00;100.00
50011;BME280;35899;50.352;19.390;2023-04-20T00:57:20;97890.80;;;7.01;100.00
50011;BME280;35899;50.352;19.390;2023-04-20T00:59:49;97891.05;;;7.03;100.00
50011;BME280;35899;50.352;19.390;2023-04-20T01:02:16;97894.21;;;7.04;100.00
50011;BME280;35899;50.352;19.390;2023-04-20T01:04:46;97892.02;;;7.07;100.00
50011;BME280;35899;50.352;19.390;2023-04-20T01:07:12;97891.03;;;7.09;100.00
50011;BME280;35899;50.352;19.390;2023-04-20T01:09:41;97887.39;;;7.10;100.00
50011;BME280;35899;50.352;19.390;2023-04-20T01:12:08;97889.26;;;7.11;100.00
50011;BME280;35899;50.352;19.390;2023-04-20T01:14:36;97888.38;;;7.11;100.00
50011;BME280;35899;50.352;19.390;2023-04-20T01:17:02;97884.88;;;7.09;100.00
50011;BME280;35899;50.352;19.390;2023-04-20T01:19:31;97885.26;;;7.08;100.00
50011;BME280;35899;50.352;19.390;2023-04-20T01:22:08;97881.90;;;7.06;100.00
50011;BME280;35899;50.352;19.390;2023-04-20T01:24:35;97880.61;;;7.05;100.00
50011;BME280;35899;50.352;19.390;2023-04-20T01:27:05;97883.63;;;7.03;100.00
50011;BME280;35899;50.352;19.390;2023-04-20T01:29:34;97889.19;;;7.02;100.00
50011;BME280;35899;50.352;19.390;2023-04-20T01:32:00;97889.08;;;7.01;100.00
50011;BME280;35899;50.352;19.390;2023-04-20T01:34:31;97884.86;;;7.00;100.00
50011;BME280;35899;50.352;19.390;2023-04-20T01:36:57;97882.72;;;6.98;100.00
50011;BME280;35899;50.352;19.390;2023-04-20T01:39:35;97881.36;;;6.95;100.00
50011;BME280;35899;50.352;19.390;2023-04-20T01:42:03;97879.77;;;6.92;100.00
50011;BME280;35899;50.352;19.390;2023-04-20T01:44:29;97878.33;;;6.87;100.00
50011;BME280;35899;50.352;19.390;2023-04-20T01:46:56;97881.67;;;6.83;100.00
50011;BME280;35899;50.352;19.390;2023-04-20T01:49:22;97880.46;;;6.76;100.00
50011;BME280;35899;50.352;19.390;2023-04-20T01:51:52;97883.39;;;6.70;100.00
50011;BME280;35899;50.352;19.390;2023-04-20T01:54:20;97882.84;;;6.64;100.00
50011;BME280;35899;50.352;19.390;2023-04-20T01:56:46;97882.05;;;6.60;100.00
50011;BME280;35899;50.352;19.390;2023-04-20T01:59:14;97888.52;;;6.55;100.00
50011;BME280;35899;50.352;19.390;2023-04-20T02:01:41;97885.89;;;6.50;100.00
50011;BME280;35899;50.352;19.390;2023-04-20T02:04:07;97886.11;;;6.45;100.00
50011;BME280;35899;50.352;19.390;2023-04-20T02:06:36;97886.14;;;6.42;100.00
50011;BME280;35899;50.352;19.390;2023-04-20T02:09:03;97887.61;;;6.40;100.00
50011;BME280;35899;50.352;19.390;2023-04-20T02:11:29;97887.30;;;6.39;100.00
50011;BME280;35899;50.352;19.390;2023-04-20T02:13:56;97885.05;;;6.40;100.00
50011;BME280;35899;50.352;19.390;2023-04-20T02:16:22;97881.73;;;6.37;100.00
50011;BME280;35899;50.352;19.390;2023-04-20T02:18:49;97881.67;;;6.35;100.00
50011;BME280;35899;50.352;19.390;2023-04-20T02:21:15;97880.70;;;6.34;100.00
50011;BME280;35899;50.352;19.390;2023-04-20T02:23:41;97886.49;;;6.35;100.00
50011;BME280;35899;50.352;19.390;2023-04-20T02:26:10;97886.96;;;6.36;100.00
50011;BME280;35899;50.352;19.390;2023-04-20T02:28:39;97886.55;;;6.38;100.00
50011;BME280;35899;50.352;19.390;2023-04-20T02:31:05;97882.33;;;6.39;100.00
50011;BME280;35899;50.352;19.390;2023-04-20T02:33:32;97887.08;;;6.40;100.00
50011;BME280;35899;50.352;19.390;2023-04-20T02:35:58;97887.62;;;6.40;100.00
50011;BME280;35899;50.352;19.390;2023-04-20T02:38:25;97889.09;;;6.41;100.00
50011;BME280;35899;50.352;19.390;2023-04-20T02:40:51;97886.67;;;6.41;100.00
50011;BME280;35899;50.352;19.390;2023-04-20T02:43:18;97889.35;;;6.43;100.00
50011;BME280;35899;50.352;19.390;2023-04-20T02:45:45;97890.06;;;6.45;100.00
50011;BME280;35899;50.352;19.390;2023-04-20T02:48:15;97888.92;;;6.47;100.00
50011;BME280;35899;50.352;19.390;2023-04-20T02:50:42;97892.27;;;6.50;100.00
50011;BME280;35899;50.352;19.390;2023-04-20T02:53:20;97887.09;;;6.50;100.00
50011;BME280;35899;50.352;19.390;2023-04-20T02:55:57;97888.73;;;6.51;100.00
50011;BME280;35899;50.352;19.390;2023-04-20T02:58:33;97888.98;;;6.53;100.00
50011;BME280;35899;50.352;19.390;2023-04-20T03:01:14;97890.23;;;6.55;100.00
50011;BME280;35899;50.352;19.390;2023-04-20T03:03:41;97893.30;;;6.55;100.00
50011;BME280;35899;50.352;19.390;2023-04-20T03:06:10;97893.93;;;6.57;100.00
50011;BME280;35899;50.352;19.390;2023-04-20T03:08:38;97894.44;;;6.57;100.00
50011;BME280;35899;50.352;19.390;2023-04-20T03:11:23;97892.54;;;6.57;100.00
50011;BME280;35899;50.352;19.390;2023-04-20T03:13:50;97896.07;;;6.59;100.00
50011;BME280;35899;50.352;19.390;2023-04-20T03:16:16;97897.85;;;6.60;100.00
50011;BME280;35899;50.352;19.390;2023-04-20T03:18:47;97894.34;;;6.62;100.00
50011;BME280;35899;50.352;19.390;2023-04-20T03:21:14;97893.63;;;6.62;100.00
50011;BME280;35899;50.352;19.390;2023-04-20T03:23:40;97892.92;;;6.62;100.00
50011;BME280;35899;50.352;19.390;2023-04-20T03:26:07;97895.11;;;6.63;100.00
50011;BME280;35899;50.352;19.390;2023-04-20T03:28:56;97891.92;;;6.65;100.00
50011;BME280;35899;50.352;19.390;2023-04-20T03:31:24;97893.38;;;6.67;100.00
50011;BME280;35899;50.352;19.390;2023-04-20T03:33:51;97893.33;;;6.68;100.00
50011;BME280;35899;50.352;19.390;2023-04-20T03:36:18;97897.17;;;6.70;100.00
50011;BME280;35899;50.352;19.390;2023-04-20T03:38:44;97900.52;;;6.72;100.00
50011;BME280;35899;50.352;19.390;2023-04-20T03:41:11;97900.63;;;6.73;100.00
50011;BME280;35899;50.352;19.390;2023-04-20T03:43:37;97900.66;;;6.72;100.00
50011;BME280;35899;50.352;19.390;2023-04-20T03:46:04;97903.23;;;6.72;100.00
50011;BME280;35899;50.352;19.390;2023-04-20T03:48:31;97901.80;;;6.73;100.00
50011;BME280;35899;50.352;19.390;2023-04-20T03:51:00;97906.44;;;6.73;100.00
50011;BME280;35899;50.352;19.390;2023-04-20T03:53:27;97905.98;;;6.75;100.00
50011;BME280;35899;50.352;19.390;2023-04-20T03:55:54;97908.52;;;6.76;100.00
50011;BME280;35899;50.352;19.390;2023-04-20T03:58:20;97911.70;;;6.78;100.00
50011;BME280;35899;50.352;19.390;2023-04-20T04:01:08;97911.98;;;6.79;100.00
50011;BME280;35899;50.352;19.390;2023-04-20T04:03:37;97917.10;;;6.80;100.00
50011;BME280;35899;50.352;19.390;2023-04-20T04:06:05;97916.54;;;6.80;100.00
50011;BME280;35899;50.352;19.390;2023-04-20T04:08:32;97917.59;;;6.80;100.00
50011;BME280;35899;50.352;19.390;2023-04-20T04:10:59;97914.67;;;6.80;100.00
50011;BME280;35899;50.352;19.390;2023-04-20T04:13:25;97917.05;;;6.80;100.00
50011;BME280;35899;50.352;19.390;2023-04-20T04:15:52;97919.21;;;6.82;100.00
50011;BME280;35899;50.352;19.390;2023-04-20T04:18:19;97918.11;;;6.86;100.00
50011;BME280;35899;50.352;19.390;2023-04-20T04:20:46;97917.52;;;6.91;100.00
50011;BME280;35899;50.352;19.390;2023-04-20T04:23:12;97913.92;;;6.94;100.00
50011;BME280;35899;50.352;19.390;2023-04-20T04:25:44;97913.45;;;6.96;100.00
50011;BME280;35899;50.352;19.390;2023-04-20T04:28:10;97916.66;;;7.00;100.00
50011;BME280;35899;50.352;19.390;2023-04-20T04:30:46;97917.57;;;7.02;100.00
50011;BME280;35899;50.352;19.390;2023-04-20T04:33:15;97923.13;;;7.04;100.00
50011;BME280;35899;50.352;19.390;2023-04-20T04:35:43;97922.06;;;7.08;100.00
50011;BME280;35899;50.352;19.390;2023-04-20T04:38:10;97919.40;;;7.13;100.00
50011;BME280;35899;50.352;19.390;2023-04-20T04:40:37;97922.34;;;7.18;100.00
50011;BME280;35899;50.352;19.390;2023-04-20T04:43:07;97924.36;;;7.25;100.00
50011;BME280;35899;50.352;19.390;2023-04-20T04:45:37;97924.31;;;7.29;100.00
50011;BME280;35899;50.352;19.390;2023-04-20T04:48:04;97926.60;;;7.34;100.00
50011;BME280;35899;50.352;19.390;2023-04-20T04:50:34;97926.77;;;7.37;100.00
50011;BME280;35899;50.352;19.390;2023-04-20T04:53:00;97930.50;;;7.38;100.00
50011;BME280;35899;50.352;19.390;2023-04-20T04:55:29;97932.27;;;7.38;100.00
50011;BME280;35899;50.352;19.390;2023-04-20T04:57:56;97934.98;;;7.35;100.00
50011;BME280;35899;50.352;19.390;2023-04-20T05:00:22;97932.27;;;7.34;100.00
50011;BME280;35899;50.352;19.390;2023-04-20T05:02:49;97933.47;;;7.35;100.00
50011;BME280;35899;50.352;19.390;2023-04-20T05:05:16;97934.96;;;7.39;100.00
50011;BME280;35899;50.352;19.390;2023-04-20T05:07:43;97937.73;;;7.44;100.00
50011;BME280;35899;50.352;19.390;2023-04-20T05:10:09;97939.10;;;7.54;100.00
50011;BME280;35899;50.352;19.390;2023-04-20T05:12:36;97938.67;;;7.61;100.00
50011;BME280;35899;50.352;19.390;2023-04-20T05:15:03;97940.77;;;7.70;100.00
50011;BME280;35899;50.352;19.390;2023-04-20T05:17:30;97946.31;;;7.75;100.00
50011;BME280;35899;50.352;19.390;2023-04-20T05:19:56;97947.30;;;7.76;100.00
50011;BME280;35899;50.352;19.390;2023-04-20T05:22:23;97951.30;;;7.78;100.00
50011;BME280;35899;50.352;19.390;2023-04-20T05:24:49;97948.65;;;7.82;100.00
50011;BME280;35899;50.352;19.390;2023-04-20T05:27:15;97948.59;;;7.86;100.00
50011;BME280;35899;50.352;19.390;2023-04-20T05:29:42;97948.17;;;7.90;100.00
50011;BME280;35899;50.352;19.390;2023-04-20T05:32:08;97951.94;;;7.94;100.00
50011;BME280;35899;50.352;19.390;2023-04-20T05:34:43;97952.86;;;7.96;100.00
50011;BME280;35899;50.352;19.390;2023-04-20T05:37:10;97952.61;;;7.97;100.00
50011;BME280;35899;50.352;19.390;2023-04-20T05:39:36;97951.13;;;7.99;100.00
50011;BME280;35899;50.352;19.390;2023-04-20T05:42:03;97948.13;;;8.06;100.00
50011;BME280;35899;50.352;19.390;2023-04-20T05:44:30;97952.17;;;8.13;100.00
50011;BME280;35899;50.352;19.390;2023-04-20T05:47:06;97953.36;;;8.19;100.00
50011;BME280;35899;50.352;19.390;2023-04-20T05:49:34;97955.94;;;8.25;100.00
50011;BME280;35899;50.352;19.390;2023-04-20T05:52:00;97953.14;;;8.37;100.00
50011;BME280;35899;50.352;19.390;2023-04-20T05:54:27;97952.40;;;8.55;100.00
50011;BME280;35899;50.352;19.390;2023-04-20T05:56:54;97953.38;;;8.79;100.00
50011;BME280;35899;50.352;19.390;2023-04-20T05:59:20;97959.04;;;9.07;100.00
50011;BME280;35899;50.352;19.390;2023-04-20T06:01:47;97958.73;;;9.38;100.00
50011;BME280;35899;50.352;19.390;2023-04-20T06:04:14;97953.02;;;9.73;100.00
50011;BME280;35899;50.352;19.390;2023-04-20T06:06:41;97950.59;;;9.97;100.00
50011;BME280;35899;50.352;19.390;2023-04-20T06:09:07;97953.99;;;10.10;100.00
50011;BME280;35899;50.352;19.390;2023-04-20T06:11:34;97957.49;;;10.17;100.00
50011;BME280;35899;50.352;19.390;2023-04-20T06:14:00;97960.90;;;10.26;100.00
50011;BME280;35899;50.352;19.390;2023-04-20T06:16:27;97959.77;;;10.36;100.00
50011;BME280;35899;50.352;19.390;2023-04-20T06:18:57;97960.24;;;10.46;100.00
50011;BME280;35899;50.352;19.390;2023-04-20T06:21:23;97966.16;;;10.46;100.00
50011;BME280;35899;50.352;19.390;2023-04-20T06:23:50;97968.89;;;10.44;100.00
50011;BME280;35899;50.352;19.390;2023-04-20T06:26:17;97971.77;;;10.47;100.00
50011;BME280;35899;50.352;19.390;2023-04-20T06:28:46;97970.84;;;10.53;100.00
50011;BME280;35899;50.352;19.390;2023-04-20T06:31:13;97969.06;;;10.53;100.00
50011;BME280;35899;50.352;19.390;2023-04-20T06:33:39;97966.16;;;10.55;100.00
50011;BME280;35899;50.352;19.390;2023-04-20T06:36:06;97962.65;;;10.56;100.00
50011;BME280;35899;50.352;19.390;2023-04-20T06:38:32;97963.32;;;10.62;100.00
50011;BME280;35899;50.352;19.390;2023-04-20T06:40:59;97962.27;;;10.67;100.00
50011;BME280;35899;50.352;19.390;2023-04-20T06:43:25;97964.08;;;10.61;100.00
50011;BME280;35899;50.352;19.390;2023-04-20T06:45:52;97966.01;;;10.43;100.00
50011;BME280;35899;50.352;19.390;2023-04-20T06:48:20;97966.94;;;10.37;100.00
50011;BME280;35899;50.352;19.390;2023-04-20T06:51:00;97969.19;;;10.44;100.00
50011;BME280;35899;50.352;19.390;2023-04-20T06:53:27;97961.02;;;10.52;100.00
50011;BME280;35899;50.352;19.390;2023-04-20T06:55:54;97962.75;;;10.67;100.00
50011;BME280;35899;50.352;19.390;2023-04-20T06:58:20;97961.05;;;10.84;100.00
50011;BME280;35899;50.352;19.390;2023-04-20T07:00:47;97962.09;;;10.99;100.00
50011;BME280;35899;50.352;19.390;2023-04-20T07:03:13;97961.70;;;11.07;99.93
50011;BME280;35899;50.352;19.390;2023-04-20T07:05:40;97964.52;;;11.21;100.00
50011;BME280;35899;50.352;19.390;2023-04-20T07:08:07;97967.20;;;11.34;100.00
50011;BME280;35899;50.352;19.390;2023-04-20T07:10:33;97969.17;;;11.50;99.76
50011;BME280;35899;50.352;19.390;2023-04-20T07:13:00;97968.11;;;11.60;98.71
50011;BME280;35899;50.352;19.390;2023-04-20T07:15:26;97969.02;;;11.71;98.33
50011;BME280;35899;50.352;19.390;2023-04-20T07:17:53;97974.91;;;11.75;97.77
50011;BME280;35899;50.352;19.390;2023-04-20T07:20:19;97974.58;;;11.80;97.77
50011;BME280;35899;50.352;19.390;2023-04-20T07:22:48;97978.85;;;11.90;98.19
50011;BME280;35899;50.352;19.390;2023-04-20T07:25:15;97978.73;;;12.06;97.86
50011;BME280;35899;50.352;19.390;2023-04-20T07:27:41;97984.59;;;12.16;96.73
50011;BME280;35899;50.352;19.390;2023-04-20T07:30:08;97984.25;;;12.18;95.49
50011;BME280;35899;50.352;19.390;2023-04-20T07:32:38;97983.45;;;12.19;95.54
50011;BME280;35899;50.352;19.390;2023-04-20T07:35:05;97984.23;;;12.32;96.21
50011;BME280;35899;50.352;19.390;2023-04-20T07:37:37;97982.59;;;12.44;95.99
50011;BME280;35899;50.352;19.390;2023-04-20T07:40:04;97983.38;;;12.54;95.55
50011;BME280;35899;50.352;19.390;2023-04-20T07:42:31;97981.11;;;12.57;93.85
50011;BME280;35899;50.352;19.390;2023-04-20T07:44:58;97985.54;;;12.62;94.16
50011;BME280;35899;50.352;19.390;2023-04-20T07:47:25;97985.15;;;12.70;93.72
50011;BME280;35899;50.352;19.390;2023-04-20T07:49:51;97983.20;;;12.79;93.70
50011;BME280;35899;50.352;19.390;2023-04-20T07:52:18;97985.77;;;12.91;93.15
50011;BME280;35899;50.352;19.390;2023-04-20T07:54:55;97984.91;;;13.06;93.40
50011;BME280;35899;50.352;19.390;2023-04-20T07:57:21;97985.45;;;13.23;93.09
50011;BME280;35899;50.352;19.390;2023-04-20T08:00:08;97983.50;;;13.37;92.14
50011;BME280;35899;50.352;19.390;2023-04-20T08:02:53;97982.60;;;13.44;90.75
50011;BME280;35899;50.352;19.390;2023-04-20T08:05:20;97985.20;;;13.53;90.88
50011;BME280;35899;50.352;19.390;2023-04-20T08:07:51;97983.52;;;13.60;89.80
50011;BME280;35899;50.352;19.390;2023-04-20T08:10:19;97984.89;;;13.65;89.17
50011;BME280;35899;50.352;19.390;2023-04-20T08:12:46;97979.20;;;13.79;89.18
50011;BME280;35899;50.352;19.390;2023-04-20T08:15:15;97980.41;;;13.98;88.51
50011;BME280;35899;50.352;19.390;2023-04-20T08:17:58;97976.38;;;14.22;87.55
50011;BME280;35899;50.352;19.390;2023-04-20T08:20:55;97979.38;;;14.48;87.13
50011;BME280;35899;50.352;19.390;2023-04-20T08:23:22;97975.85;;;14.73;86.61
50011;BME280;35899;50.352;19.390;2023-04-20T08:25:58;97978.91;;;15.08;87.20
50011;BME280;35899;50.352;19.390;2023-04-20T08:29:00;97981.70;;;15.60;87.56
50011;BME280;35899;50.352;19.390;2023-04-20T08:31:30;97981.98;;;16.03;87.50
50011;BME280;35899;50.352;19.390;2023-04-20T08:33:57;97982.52;;;16.37;86.53
50011;BME280;35899;50.352;19.390;2023-04-20T08:36:23;97986.98;;;16.62;85.19
50011;BME280;35899;50.352;19.390;2023-04-20T08:38:52;97986.42;;;16.90;84.77
50011;BME280;35899;50.352;19.390;2023-04-20T08:41:30;97993.42;;;17.03;82.81
50011;BME280;35899;50.352;19.390;2023-04-20T08:43:57;97991.88;;;16.96;80.80
50011;BME280;35899;50.352;19.390;2023-04-20T08:46:25;97990.25;;;16.85;79.15
50011;BME280;35899;50.352;19.390;2023-04-20T08:48:52;97990.30;;;16.68;78.79
50011;BME280;35899;50.352;19.390;2023-04-20T08:51:39;97988.21;;;16.75;78.94
50011;BME280;35899;50.352;19.390;2023-04-20T08:54:06;97985.44;;;16.80;78.80
50011;BME280;35899;50.352;19.390;2023-04-20T08:56:36;97986.52;;;16.84;78.43
50011;BME280;35899;50.352;19.390;2023-04-20T08:59:04;97987.17;;;16.87;77.60
50011;BME280;35899;50.352;19.390;2023-04-20T09:01:33;97994.36;;;16.82;77.08
50011;BME280;35899;50.352;19.390;2023-04-20T09:04:15;97991.62;;;16.82;76.28
50011;BME280;35899;50.352;19.390;2023-04-20T09:06:54;97992.66;;;16.76;74.56
50011;BME280;35899;50.352;19.390;2023-04-20T09:09:24;97992.27;;;16.78;74.71
50011;BME280;35899;50.352;19.390;2023-04-20T09:14:48;97993.00;;;17.28;72.67
50011;BME280;35899;50.352;19.390;2023-04-20T09:17:32;97995.13;;;17.38;72.69
50011;BME280;35899;50.352;19.390;2023-04-20T09:20:02;97990.05;;;17.46;71.79
50011;BME280;35899;50.352;19.390;2023-04-20T09:22:50;97990.35;;;17.53;71.92
50011;BME280;35899;50.352;19.390;2023-04-20T09:25:22;97991.40;;;17.64;71.80
50011;BME280;35899;50.352;19.390;2023-04-20T09:28:10;97987.95;;;17.76;71.19
50011;BME280;35899;50.352;19.390;2023-04-20T09:30:43;97993.56;;;17.63;69.36
50011;BME280;35899;50.352;19.390;2023-04-20T09:36:09;97990.36;;;17.51;69.63
50011;BME280;35899;50.352;19.390;2023-04-20T09:39:02;97986.30;;;17.52;68.41
50011;BME280;35899;50.352;19.390;2023-04-20T09:41:40;97991.24;;;17.49;68.29
50011;BME280;35899;50.352;19.390;2023-04-20T09:50:23;97991.39;;;16.88;67.87
50011;BME280;35899;50.352;19.390;2023-04-20T09:53:15;97989.32;;;16.48;68.68
50011;BME280;35899;50.352;19.390;2023-04-20T09:58:25;97994.31;;;16.08;68.82
50011;BME280;35899;50.352;19.390;2023-04-20T10:06:57;97996.64;;;15.23;69.04
50011;BME280;35899;50.352;19.390;2023-04-20T10:09:29;97997.64;;;15.01;69.43
50011;BME280;35899;50.352;19.390;2023-04-20T10:12:17;97993.98;;;14.87;70.81
50011;BME280;35899;50.352;19.390;2023-04-20T10:14:53;97996.94;;;14.71;70.98
50011;BME280;35899;50.352;19.390;2023-04-20T10:17:28;97996.11;;;14.50;71.25
50011;BME280;35899;50.352;19.390;2023-04-20T10:19:58;97996.17;;;14.26;71.59
50011;BME280;35899;50.352;19.390;2023-04-20T10:22:25;97998.35;;;14.15;72.40
50011;BME280;35899;50.352;19.390;2023-04-20T10:24:52;97992.22;;;14.11;72.69
50011;BME280;35899;50.352;19.390;2023-04-20T10:27:19;97991.83;;;14.18;72.76
50011;BME280;35899;50.352;19.390;2023-04-20T10:29:46;97993.53;;;14.33;72.76
50011;BME280;35899;50.352;19.390;2023-04-20T10:32:25;97993.73;;;14.63;72.79
50011;BME280;35899;50.352;19.390;2023-04-20T10:35:04;97986.73;;;15.79;72.87
50011;BME280;35899;50.352;19.390;2023-04-20T10:37:45;97983.65;;;17.03;71.48
50011;BME280;35899;50.352;19.390;2023-04-20T10:40:12;97983.02;;;17.92;70.34
50011;BME280;35899;50.352;19.390;2023-04-20T10:42:45;97983.52;;;18.30;68.74
50011;BME280;35899;50.352;19.390;2023-04-20T10:45:14;97980.23;;;18.77;67.84
50011;BME280;35899;50.352;19.390;2023-04-20T10:47:40;97980.03;;;19.65;66.47
50011;BME280;35899;50.352;19.390;2023-04-20T10:50:14;97983.47;;;19.91;63.99
50011;BME280;35899;50.352;19.390;2023-04-20T10:52:43;97982.03;;;20.12;62.72
50011;BME280;35899;50.352;19.390;2023-04-20T10:55:19;97981.23;;;19.84;61.73
50011;BME280;35899;50.352;19.390;2023-04-20T10:57:47;97982.91;;;19.30;61.89
50011;BME280;35899;50.352;19.390;2023-04-20T11:00:18;97980.73;;;18.81;62.54
50011;BME280;35899;50.352;19.390;2023-04-20T11:02:46;97984.14;;;18.23;62.56
50011;BME280;35899;50.352;19.390;2023-04-20T11:05:13;97984.58;;;17.53;62.80
50011;BME280;35899;50.352;19.390;2023-04-20T11:07:56;97982.56;;;17.11;63.84
50011;BME280;35899;50.352;19.390;2023-04-20T11:10:35;97983.39;;;16.76;64.92
50011;BME280;35899;50.352;19.390;2023-04-20T11:13:17;97980.77;;;16.61;65.82
50011;BME280;35899;50.352;19.390;2023-04-20T11:15:44;97976.54;;;16.47;66.54
50011;BME280;35899;50.352;19.390;2023-04-20T11:18:10;97979.16;;;16.43;67.51
50011;BME280;35899;50.352;19.390;2023-04-20T11:20:48;97978.20;;;16.34;66.90
50011;BME280;35899;50.352;19.390;2023-04-20T11:23:15;97977.49;;;16.25;67.58
50011;BME280;35899;50.352;19.390;2023-04-20T11:25:51;97981.47;;;16.20;67.38
50011;BME280;35899;50.352;19.390;2023-04-20T11:28:19;97983.64;;;16.19;67.65
50011;BME280;35899;50.352;19.390;2023-04-20T11:33:28;97988.19;;;16.17;68.24
50011;BME280;35899;50.352;19.390;2023-04-20T11:35:56;97989.95;;;16.13;68.62
50011;BME280;35899;50.352;19.390;2023-04-20T11:38:29;97991.73;;;16.09;68.94
50011;BME280;35899;50.352;19.390;2023-04-20T11:40:56;97992.99;;;16.18;69.01
50011;BME280;35899;50.352;19.390;2023-04-20T11:43:40;97993.30;;;16.37;69.05
50011;BME280;35899;50.352;19.390;2023-04-20T11:46:15;97990.39;;;16.50;68.70
50011;BME280;35899;50.352;19.390;2023-04-20T11:48:42;97993.16;;;16.67;68.28
50011;BME280;35899;50.352;19.390;2023-04-20T11:51:19;97992.77;;;16.77;67.61
50011;BME280;35899;50.352;19.390;2023-04-20T11:53:48;97993.45;;;16.96;67.95
50011;BME280;35899;50.352;19.390;2023-04-20T11:56:35;97989.05;;;17.20;66.63
50011;BME280;35899;50.352;19.390;2023-04-20T11:59:08;97987.77;;;17.46;66.73
50011;BME280;35899;50.352;19.390;2023-04-20T12:01:37;97990.63;;;17.90;66.65
50011;BME280;35899;50.352;19.390;2023-04-20T12:04:04;97986.71;;;18.22;65.14
50011;BME280;35899;50.352;19.390;2023-04-20T12:06:31;97984.45;;;18.52;63.99
50011;BME280;35899;50.352;19.390;2023-04-20T12:08:58;97986.32;;;18.64;63.74
50011;BME280;35899;50.352;19.390;2023-04-20T12:11:25;97978.27;;;18.67;64.08
50011;BME280;35899;50.352;19.390;2023-04-20T12:13:52;97977.98;;;18.86;64.14
50011;BME280;35899;50.352;19.390;2023-04-20T12:16:18;97974.34;;;18.98;63.11
50011;BME280;35899;50.352;19.390;2023-04-20T12:18:51;97971.39;;;18.90;62.41
50011;BME280;35899;50.352;19.390;2023-04-20T12:21:43;97970.47;;;18.56;61.61
50011;BME280;35899;50.352;19.390;2023-04-20T12:24:10;97968.27;;;18.12;61.70
50011;BME280;35899;50.352;19.390;2023-04-20T12:26:45;97968.99;;;17.64;62.46
50011;BME280;35899;50.352;19.390;2023-04-20T12:29:38;97965.08;;;17.29;63.83
50011;BME280;35899;50.352;19.390;2023-04-20T12:32:11;97969.10;;;17.03;64.15
50011;BME280;35899;50.352;19.390;2023-04-20T12:34:58;97965.65;;;17.01;65.00
50011;BME280;35899;50.352;19.390;2023-04-20T12:37:27;97967.77;;;17.01;64.30
50011;BME280;35899;50.352;19.390;2023-04-20T12:39:54;97967.64;;;16.95;63.90
50011;BME280;35899;50.352;19.390;2023-04-20T12:42:20;97965.77;;;16.89;63.76
50011;BME280;35899;50.352;19.390;2023-04-20T12:44:47;97967.83;;;16.88;64.28
50011;BME280;35899;50.352;19.390;2023-04-20T12:49:53;97971.45;;;17.05;63.78
50011;BME280;35899;50.352;19.390;2023-04-20T12:52:26;97972.35;;;17.24;63.50
50011;BME280;35899;50.352;19.390;2023-04-20T12:55:01;97966.52;;;17.52;62.83
50011;BME280;35899;50.352;19.390;2023-04-20T12:57:28;97965.86;;;18.24;62.16
50011;BME280;35899;50.352;19.390;2023-04-20T13:00:01;97965.02;;;18.85;61.40
50011;BME280;35899;50.352;19.390;2023-04-20T13:02:27;97961.34;;;19.43;60.03
50011;BME280;35899;50.352;19.390;2023-04-20T13:04:54;97961.18;;;20.21;58.87
50011;BME280;35899;50.352;19.390;2023-04-20T13:07:40;97964.15;;;20.78;57.23
50011;BME280;35899;50.352;19.390;2023-04-20T13:10:11;97964.77;;;20.78;56.10
50011;BME280;35899;50.352;19.390;2023-04-20T13:12:38;97965.09;;;20.93;54.88
50011;BME280;35899;50.352;19.390;2023-04-20T13:15:05;97956.64;;;22.66;53.30
50011;BME280;35899;50.352;19.390;2023-04-20T13:23:30;97944.84;;;29.20;44.87
50011;BME280;35899;50.352;19.390;2023-04-20T13:25:57;97939.15;;;30.50;42.84
50011;BME280;35899;50.352;19.390;2023-04-20T13:28:27;97935.57;;;31.73;40.61
50011;BME280;35899;50.352;19.390;2023-04-20T13:30:53;97932.31;;;32.78;37.30
50011;BME280;35899;50.352;19.390;2023-04-20T13:33:20;97935.64;;;32.86;37.14
50011;BME280;35899;50.352;19.390;2023-04-20T13:38:43;97930.94;;;29.20;39.81